Webb Lake, Wisconsin
Current Conditions -  °F | °C
As of 3:35 AM on Monday 24 Nov 2014 (Local Time) from KRZN Reporting Station
Light Snow Light Snow  
Wind Chill: 25°   Ceiling: 600
Heat Index: 33°   Visibility: 4mi
Dew Point: 33°   Wind: 10mph
Humidity: 99%   Direction: 320°NW
Pressure: 29.24"   Gusts: NA
Location:  46.1107°N, 92.219°W
Report Text: KRZN 240935Z AUTO 32009KT 4SM -SN BKN006 OVC010 01/01 A2924 RMK AO2 P0002 T00060005
Loading
Personal Weather Stations






























Interactive Weather Map New forecast layout! Learn more

10-Day Weather Forecast

Advertisements
Track Severe Weather on mobile